首页
METAR-TAF:

METAR-TAF

机场 :

温斯顿-塞勒姆, 北卡罗来纳州, 美国

纬度: 36-08-00N, 经度: 080-13-29W, 海拔: 295米

当前天气观测

该预报发布于12分钟前的22:54 UTC
风速5节,风向西转西南
温度 28°C
湿度 42%
气压 1013 hPa
能見度: 16.1公里
多云层高于10000英尺

METAR: KINT 202254Z 24005KT 10SM BKN100 28/14 A2992 RMK AO2 SLP121 T02780144

时间: 19:06 (23:06 UTC)

预报

该预报发布于24分钟前的22:42 UTC
预报有效从20日的 23点(UTC)到 21日的 18点(UTC)
风速5节,风向西转西南
能見度: 10公里
散云层高于4000英尺
散云层高于20000英尺
附近有阵雨
从 21日的 0200点(UTC)
风速4节,风向西北
能見度: 10公里
少量云层高于20000英尺

TAF: KINT 202242Z 2023/2118 24005KT P6SM VCSH SCT040 SCT200 FM210200 32004KT P6SM FEW200

超过4000个机场的气象观测和天气预报(METAR&TAF报告)。

可查询的气象台以黄色和红色小点在地图上表示。

将鼠标移到小点上方,可查看气象台名称。

然后点击查看天气观测和预报。

如需切换地图:点击带黑十字的绿色按钮放大地图;点击带横线的绿色按钮缩小地图;或者点击绿色箭头查看邻近地区的地图。


METAR-TAF: